sensor_id;sensor_type;location;lat;lon;timestamp;P1;durP1;ratioP1;P2;durP2;ratioP2
5965;SDS011;3009;43.224;27.976;2023-04-07T00:01:10;8.30;;;5.60;;
5965;SDS011;3009;43.224;27.976;2023-04-07T00:03:39;6.50;;;5.90;;
5965;SDS011;3009;43.224;27.976;2023-04-07T00:06:09;7.10;;;5.53;;
5965;SDS011;3009;43.224;27.976;2023-04-07T00:08:37;8.03;;;6.10;;
5965;SDS011;3009;43.224;27.976;2023-04-07T00:11:06;7.83;;;5.37;;
5965;SDS011;3009;43.224;27.976;2023-04-07T00:13:34;9.23;;;5.73;;
5965;SDS011;3009;43.224;27.976;2023-04-07T00:16:03;5.90;;;5.40;;
5965;SDS011;3009;43.224;27.976;2023-04-07T00:18:31;8.20;;;6.10;;
5965;SDS011;3009;43.224;27.976;2023-04-07T00:21:00;7.67;;;5.50;;
5965;SDS011;3009;43.224;27.976;2023-04-07T00:23:29;6.03;;;5.43;;
5965;SDS011;3009;43.224;27.976;2023-04-07T00:25:58;7.13;;;5.50;;
5965;SDS011;3009;43.224;27.976;2023-04-07T00:28:26;6.90;;;6.17;;
5965;SDS011;3009;43.224;27.976;2023-04-07T00:30:54;7.30;;;5.67;;
5965;SDS011;3009;43.224;27.976;2023-04-07T00:33:23;7.23;;;6.20;;
5965;SDS011;3009;43.224;27.976;2023-04-07T00:35:51;6.70;;;5.93;;
5965;SDS011;3009;43.224;27.976;2023-04-07T00:38:20;6.13;;;5.50;;
5965;SDS011;3009;43.224;27.976;2023-04-07T00:40:51;6.47;;;5.87;;
5965;SDS011;3009;43.224;27.976;2023-04-07T00:43:24;6.80;;;5.67;;
5965;SDS011;3009;43.224;27.976;2023-04-07T00:45:52;6.50;;;5.90;;
5965;SDS011;3009;43.224;27.976;2023-04-07T00:48:21;10.57;;;5.50;;
5965;SDS011;3009;43.224;27.976;2023-04-07T00:50:50;8.87;;;6.63;;
5965;SDS011;3009;43.224;27.976;2023-04-07T00:53:18;10.30;;;5.83;;
5965;SDS011;3009;43.224;27.976;2023-04-07T00:55:47;7.83;;;5.80;;
5965;SDS011;3009;43.224;27.976;2023-04-07T00:58:17;8.63;;;5.63;;
5965;SDS011;3009;43.224;27.976;2023-04-07T01:00:47;6.70;;;6.07;;
5965;SDS011;3009;43.224;27.976;2023-04-07T01:03:19;7.57;;;5.67;;
5965;SDS011;3009;43.224;27.976;2023-04-07T01:06:01;8.17;;;5.60;;
5965;SDS011;3009;43.224;27.976;2023-04-07T01:08:37;8.83;;;6.60;;
5965;SDS011;3009;43.224;27.976;2023-04-07T01:11:12;8.67;;;6.27;;
5965;SDS011;3009;43.224;27.976;2023-04-07T01:13:49;7.30;;;6.00;;
5965;SDS011;3009;43.224;27.976;2023-04-07T01:16:21;9.57;;;5.90;;
5965;SDS011;3009;43.224;27.976;2023-04-07T01:18:55;6.33;;;5.73;;
5965;SDS011;3009;43.224;27.976;2023-04-07T01:21:26;9.10;;;6.70;;
5965;SDS011;3009;43.224;27.976;2023-04-07T01:24:12;10.20;;;6.63;;
5965;SDS011;3009;43.224;27.976;2023-04-07T01:27:04;7.20;;;5.97;;
5965;SDS011;3009;43.224;27.976;2023-04-07T01:29:44;10.10;;;6.40;;
5965;SDS011;3009;43.224;27.976;2023-04-07T01:32:16;7.00;;;6.30;;
5965;SDS011;3009;43.224;27.976;2023-04-07T01:34:48;7.07;;;6.27;;
5965;SDS011;3009;43.224;27.976;2023-04-07T01:37:17;6.87;;;6.13;;
5965;SDS011;3009;43.224;27.976;2023-04-07T01:39:47;9.73;;;6.77;;
5965;SDS011;3009;43.224;27.976;2023-04-07T01:42:15;7.43;;;6.40;;
5965;SDS011;3009;43.224;27.976;2023-04-07T01:44:47;7.13;;;6.43;;
5965;SDS011;3009;43.224;27.976;2023-04-07T01:47:17;9.47;;;6.90;;
5965;SDS011;3009;43.224;27.976;2023-04-07T01:49:46;7.93;;;7.10;;
5965;SDS011;3009;43.224;27.976;2023-04-07T01:52:16;9.80;;;6.53;;
5965;SDS011;3009;43.224;27.976;2023-04-07T01:54:45;6.47;;;5.87;;
5965;SDS011;3009;43.224;27.976;2023-04-07T01:57:14;11.93;;;6.87;;
5965;SDS011;3009;43.224;27.976;2023-04-07T01:59:43;7.93;;;6.90;;
5965;SDS011;3009;43.224;27.976;2023-04-07T02:02:12;8.40;;;6.40;;
5965;SDS011;3009;43.224;27.976;2023-04-07T02:04:44;10.40;;;7.00;;
5965;SDS011;3009;43.224;27.976;2023-04-07T02:07:21;7.37;;;6.63;;
5965;SDS011;3009;43.224;27.976;2023-04-07T02:09:55;9.10;;;7.90;;
5965;SDS011;3009;43.224;27.976;2023-04-07T02:12:26;10.43;;;6.67;;
5965;SDS011;3009;43.224;27.976;2023-04-07T02:14:58;9.63;;;6.47;;
5965;SDS011;3009;43.224;27.976;2023-04-07T02:17:29;11.63;;;7.00;;
5965;SDS011;3009;43.224;27.976;2023-04-07T02:20:01;7.93;;;6.80;;
5965;SDS011;3009;43.224;27.976;2023-04-07T02:22:32;10.33;;;6.60;;
5965;SDS011;3009;43.224;27.976;2023-04-07T02:25:00;8.63;;;6.80;;
5965;SDS011;3009;43.224;27.976;2023-04-07T02:27:28;7.33;;;6.63;;
5965;SDS011;3009;43.224;27.976;2023-04-07T02:29:57;7.03;;;6.30;;
5965;SDS011;3009;43.224;27.976;2023-04-07T02:32:25;6.80;;;5.73;;
5965;SDS011;3009;43.224;27.976;2023-04-07T02:34:55;8.53;;;7.60;;
5965;SDS011;3009;43.224;27.976;2023-04-07T02:37:24;11.17;;;6.50;;
5965;SDS011;3009;43.224;27.976;2023-04-07T02:39:52;8.73;;;6.07;;
5965;SDS011;3009;43.224;27.976;2023-04-07T02:42:21;7.20;;;6.20;;
5965;SDS011;3009;43.224;27.976;2023-04-07T02:44:49;6.93;;;5.73;;
5965;SDS011;3009;43.224;27.976;2023-04-07T02:47:17;12.80;;;7.37;;
5965;SDS011;3009;43.224;27.976;2023-04-07T02:49:46;6.77;;;6.17;;
5965;SDS011;3009;43.224;27.976;2023-04-07T02:52:16;9.60;;;7.80;;
5965;SDS011;3009;43.224;27.976;2023-04-07T02:54:44;8.10;;;7.10;;
5965;SDS011;3009;43.224;27.976;2023-04-07T02:57:13;7.13;;;6.43;;
5965;SDS011;3009;43.224;27.976;2023-04-07T02:59:41;7.77;;;6.80;;
5965;SDS011;3009;43.224;27.976;2023-04-07T03:02:09;10.40;;;7.67;;
5965;SDS011;3009;43.224;27.976;2023-04-07T03:04:38;11.07;;;7.33;;
5965;SDS011;3009;43.224;27.976;2023-04-07T03:07:07;9.33;;;7.67;;
5965;SDS011;3009;43.224;27.976;2023-04-07T03:09:37;13.33;;;7.93;;
5965;SDS011;3009;43.224;27.976;2023-04-07T03:12:05;14.13;;;9.03;;
5965;SDS011;3009;43.224;27.976;2023-04-07T03:14:34;18.93;;;8.67;;
5965;SDS011;3009;43.224;27.976;2023-04-07T03:17:02;10.50;;;8.23;;
5965;SDS011;3009;43.224;27.976;2023-04-07T03:19:31;9.30;;;8.30;;
5965;SDS011;3009;43.224;27.976;2023-04-07T03:21:59;10.83;;;8.40;;
5965;SDS011;3009;43.224;27.976;2023-04-07T03:24:28;11.50;;;8.60;;
5965;SDS011;3009;43.224;27.976;2023-04-07T03:26:58;9.83;;;8.00;;
5965;SDS011;3009;43.224;27.976;2023-04-07T03:29:27;10.57;;;8.03;;
5965;SDS011;3009;43.224;27.976;2023-04-07T03:31:55;8.70;;;7.23;;
5965;SDS011;3009;43.224;27.976;2023-04-07T03:34:24;11.03;;;8.67;;
5965;SDS011;3009;43.224;27.976;2023-04-07T03:36:52;11.63;;;9.03;;
5965;SDS011;3009;43.224;27.976;2023-04-07T03:39:21;13.00;;;9.20;;
5965;SDS011;3009;43.224;27.976;2023-04-07T03:41:49;15.90;;;9.20;;
5965;SDS011;3009;43.224;27.976;2023-04-07T03:44:19;12.17;;;9.30;;
5965;SDS011;3009;43.224;27.976;2023-04-07T03:46:47;11.87;;;8.10;;
5965;SDS011;3009;43.224;27.976;2023-04-07T03:49:16;10.47;;;8.30;;
5965;SDS011;3009;43.224;27.976;2023-04-07T03:51:44;16.50;;;8.77;;
5965;SDS011;3009;43.224;27.976;2023-04-07T03:54:13;9.00;;;7.47;;
5965;SDS011;3009;43.224;27.976;2023-04-07T03:56:42;10.57;;;8.57;;
5965;SDS011;3009;43.224;27.976;2023-04-07T03:59:11;11.87;;;7.60;;
5965;SDS011;3009;43.224;27.976;2023-04-07T04:01:41;9.53;;;8.17;;
5965;SDS011;3009;43.224;27.976;2023-04-07T04:04:09;12.00;;;8.60;;
5965;SDS011;3009;43.224;27.976;2023-04-07T04:06:38;9.37;;;8.10;;
5965;SDS011;3009;43.224;27.976;2023-04-07T04:09:06;12.67;;;7.90;;
5965;SDS011;3009;43.224;27.976;2023-04-07T04:11:35;9.33;;;8.00;;
5965;SDS011;3009;43.224;27.976;2023-04-07T04:14:03;11.40;;;9.37;;
5965;SDS011;3009;43.224;27.976;2023-04-07T04:16:32;10.77;;;9.27;;
5965;SDS011;3009;43.224;27.976;2023-04-07T04:19:02;12.80;;;9.83;;
5965;SDS011;3009;43.224;27.976;2023-04-07T04:21:31;11.53;;;8.50;;
5965;SDS011;3009;43.224;27.976;2023-04-07T04:23:59;11.57;;;9.40;;
5965;SDS011;3009;43.224;27.976;2023-04-07T04:26:27;10.47;;;9.03;;
5965;SDS011;3009;43.224;27.976;2023-04-07T04:28:56;11.57;;;9.77;;
5965;SDS011;3009;43.224;27.976;2023-04-07T04:31:24;16.10;;;8.30;;
5965;SDS011;3009;43.224;27.976;2023-04-07T04:33:52;13.00;;;8.90;;
5965;SDS011;3009;43.224;27.976;2023-04-07T04:36:23;11.50;;;9.00;;
5965;SDS011;3009;43.224;27.976;2023-04-07T04:38:51;10.57;;;8.87;;
5965;SDS011;3009;43.224;27.976;2023-04-07T04:41:20;11.90;;;8.73;;
5965;SDS011;3009;43.224;27.976;2023-04-07T04:43:48;12.50;;;9.10;;
5965;SDS011;3009;43.224;27.976;2023-04-07T04:46:16;15.40;;;10.13;;
5965;SDS011;3009;43.224;27.976;2023-04-07T04:48:45;11.27;;;8.80;;
5965;SDS011;3009;43.224;27.976;2023-04-07T04:51:13;12.73;;;9.07;;
5965;SDS011;3009;43.224;27.976;2023-04-07T04:53:43;12.63;;;8.97;;
5965;SDS011;3009;43.224;27.976;2023-04-07T04:56:11;11.37;;;10.00;;
5965;SDS011;3009;43.224;27.976;2023-04-07T04:58:40;15.00;;;9.27;;
5965;SDS011;3009;43.224;27.976;2023-04-07T05:01:12;14.93;;;9.27;;
5965;SDS011;3009;43.224;27.976;2023-04-07T05:03:40;27.83;;;9.50;;
5965;SDS011;3009;43.224;27.976;2023-04-07T05:06:09;17.80;;;10.07;;
5965;SDS011;3009;43.224;27.976;2023-04-07T05:08:37;14.97;;;9.40;;
5965;SDS011;3009;43.224;27.976;2023-04-07T05:11:07;13.93;;;9.43;;
5965;SDS011;3009;43.224;27.976;2023-04-07T05:13:35;11.77;;;8.90;;
5965;SDS011;3009;43.224;27.976;2023-04-07T05:16:04;11.40;;;9.53;;
5965;SDS011;3009;43.224;27.976;2023-04-07T05:18:33;11.10;;;9.50;;
5965;SDS011;3009;43.224;27.976;2023-04-07T05:21:02;12.27;;;9.17;;
5965;SDS011;3009;43.224;27.976;2023-04-07T05:23:30;12.53;;;9.33;;
5965;SDS011;3009;43.224;27.976;2023-04-07T05:25:58;18.33;;;10.10;;
5965;SDS011;3009;43.224;27.976;2023-04-07T05:28:28;11.83;;;9.30;;
5965;SDS011;3009;43.224;27.976;2023-04-07T05:30:57;13.67;;;10.23;;
5965;SDS011;3009;43.224;27.976;2023-04-07T05:33:26;13.80;;;9.60;;
5965;SDS011;3009;43.224;27.976;2023-04-07T05:35:55;12.00;;;8.80;;
5965;SDS011;3009;43.224;27.976;2023-04-07T05:38:23;19.30;;;10.37;;
5965;SDS011;3009;43.224;27.976;2023-04-07T05:40:52;13.80;;;10.73;;
5965;SDS011;3009;43.224;27.976;2023-04-07T05:43:20;11.97;;;10.17;;
5965;SDS011;3009;43.224;27.976;2023-04-07T05:45:50;14.27;;;9.37;;
5965;SDS011;3009;43.224;27.976;2023-04-07T05:48:18;10.83;;;9.43;;
5965;SDS011;3009;43.224;27.976;2023-04-07T05:50:47;15.20;;;9.73;;
5965;SDS011;3009;43.224;27.976;2023-04-07T05:53:15;12.30;;;10.40;;
5965;SDS011;3009;43.224;27.976;2023-04-07T05:55:43;22.53;;;11.23;;
5965;SDS011;3009;43.224;27.976;2023-04-07T05:58:12;14.20;;;9.87;;
5965;SDS011;3009;43.224;27.976;2023-04-07T06:00:40;12.83;;;10.40;;
5965;SDS011;3009;43.224;27.976;2023-04-07T06:03:10;12.97;;;10.90;;
5965;SDS011;3009;43.224;27.976;2023-04-07T06:05:38;14.20;;;10.20;;
5965;SDS011;3009;43.224;27.976;2023-04-07T06:08:09;13.27;;;10.00;;
5965;SDS011;3009;43.224;27.976;2023-04-07T06:10:37;12.30;;;10.20;;
5965;SDS011;3009;43.224;27.976;2023-04-07T06:13:06;14.13;;;11.10;;
5965;SDS011;3009;43.224;27.976;2023-04-07T06:15:35;13.37;;;9.90;;
5965;SDS011;3009;43.224;27.976;2023-04-07T06:18:03;11.23;;;10.03;;
5965;SDS011;3009;43.224;27.976;2023-04-07T06:20:33;15.93;;;9.77;;
5965;SDS011;3009;43.224;27.976;2023-04-07T06:23:02;15.53;;;10.53;;
5965;SDS011;3009;43.224;27.976;2023-04-07T06:25:30;13.97;;;9.90;;
5965;SDS011;3009;43.224;27.976;2023-04-07T06:27:59;14.93;;;10.67;;
5965;SDS011;3009;43.224;27.976;2023-04-07T06:30:27;12.47;;;10.20;;
5965;SDS011;3009;43.224;27.976;2023-04-07T06:32:56;15.87;;;10.47;;
5965;SDS011;3009;43.224;27.976;2023-04-07T06:35:24;13.83;;;10.17;;
5965;SDS011;3009;43.224;27.976;2023-04-07T06:37:54;15.43;;;11.03;;
5965;SDS011;3009;43.224;27.976;2023-04-07T06:40:23;17.27;;;10.53;;
5965;SDS011;3009;43.224;27.976;2023-04-07T06:42:52;11.70;;;10.47;;
5965;SDS011;3009;43.224;27.976;2023-04-07T06:45:21;12.57;;;10.90;;
5965;SDS011;3009;43.224;27.976;2023-04-07T06:47:50;12.33;;;9.80;;
5965;SDS011;3009;43.224;27.976;2023-04-07T06:50:18;15.13;;;10.43;;
5965;SDS011;3009;43.224;27.976;2023-04-07T06:52:47;12.13;;;10.03;;
5965;SDS011;3009;43.224;27.976;2023-04-07T06:55:17;19.87;;;10.63;;
5965;SDS011;3009;43.224;27.976;2023-04-07T06:57:46;15.13;;;11.60;;
5965;SDS011;3009;43.224;27.976;2023-04-07T07:00:16;15.10;;;10.17;;
5965;SDS011;3009;43.224;27.976;2023-04-07T07:02:45;17.73;;;11.03;;
5965;SDS011;3009;43.224;27.976;2023-04-07T07:05:14;15.53;;;10.80;;
5965;SDS011;3009;43.224;27.976;2023-04-07T07:07:42;23.90;;;10.50;;
5965;SDS011;3009;43.224;27.976;2023-04-07T07:10:11;16.83;;;11.60;;
5965;SDS011;3009;43.224;27.976;2023-04-07T07:12:41;17.83;;;11.47;;
5965;SDS011;3009;43.224;27.976;2023-04-07T07:15:09;12.47;;;11.17;;
5965;SDS011;3009;43.224;27.976;2023-04-07T07:17:38;12.33;;;10.30;;
5965;SDS011;3009;43.224;27.976;2023-04-07T07:20:07;12.00;;;10.17;;
5965;SDS011;3009;43.224;27.976;2023-04-07T07:22:36;25.57;;;10.77;;
5965;SDS011;3009;43.224;27.976;2023-04-07T07:25:05;20.50;;;11.47;;
5965;SDS011;3009;43.224;27.976;2023-04-07T07:27:34;19.57;;;11.80;;
5965;SDS011;3009;43.224;27.976;2023-04-07T07:30:04;14.30;;;12.37;;
5965;SDS011;3009;43.224;27.976;2023-04-07T07:32:34;13.23;;;11.03;;
5965;SDS011;3009;43.224;27.976;2023-04-07T07:35:04;12.47;;;10.33;;
5965;SDS011;3009;43.224;27.976;2023-04-07T07:37:34;13.67;;;10.50;;
5965;SDS011;3009;43.224;27.976;2023-04-07T07:40:02;12.20;;;10.90;;
5965;SDS011;3009;43.224;27.976;2023-04-07T07:42:31;16.63;;;10.37;;
5965;SDS011;3009;43.224;27.976;2023-04-07T07:44:59;11.97;;;10.70;;
5965;SDS011;3009;43.224;27.976;2023-04-07T07:47:29;13.67;;;11.40;;
5965;SDS011;3009;43.224;27.976;2023-04-07T07:49:58;14.87;;;11.10;;
5965;SDS011;3009;43.224;27.976;2023-04-07T07:52:26;12.93;;;10.47;;
5965;SDS011;3009;43.224;27.976;2023-04-07T07:54:56;19.17;;;11.17;;
5965;SDS011;3009;43.224;27.976;2023-04-07T07:57:24;17.20;;;11.00;;
5965;SDS011;3009;43.224;27.976;2023-04-07T07:59:53;20.20;;;11.10;;
5965;SDS011;3009;43.224;27.976;2023-04-07T08:02:21;12.73;;;11.03;;
5965;SDS011;3009;43.224;27.976;2023-04-07T08:04:56;19.50;;;11.37;;
5965;SDS011;3009;43.224;27.976;2023-04-07T08:07:25;15.83;;;11.40;;
5965;SDS011;3009;43.224;27.976;2023-04-07T08:09:54;13.30;;;10.33;;
5965;SDS011;3009;43.224;27.976;2023-04-07T08:12:22;11.67;;;10.10;;
5965;SDS011;3009;43.224;27.976;2023-04-07T08:14:51;20.37;;;12.60;;
5965;SDS011;3009;43.224;27.976;2023-04-07T08:17:20;14.20;;;11.13;;
5965;SDS011;3009;43.224;27.976;2023-04-07T08:19:48;13.67;;;10.77;;
5965;SDS011;3009;43.224;27.976;2023-04-07T08:22:18;15.70;;;11.17;;
5965;SDS011;3009;43.224;27.976;2023-04-07T08:24:46;17.30;;;10.43;;
5965;SDS011;3009;43.224;27.976;2023-04-07T08:27:15;15.30;;;10.23;;
5965;SDS011;3009;43.224;27.976;2023-04-07T08:29:43;14.00;;;11.20;;
5965;SDS011;3009;43.224;27.976;2023-04-07T08:32:12;17.70;;;11.17;;
5965;SDS011;3009;43.224;27.976;2023-04-07T08:34:40;15.20;;;11.30;;
5965;SDS011;3009;43.224;27.976;2023-04-07T08:37:12;15.93;;;10.80;;
5965;SDS011;3009;43.224;27.976;2023-04-07T08:39:41;15.73;;;10.43;;
5965;SDS011;3009;43.224;27.976;2023-04-07T08:42:10;15.47;;;10.50;;
5965;SDS011;3009;43.224;27.976;2023-04-07T08:44:39;16.03;;;10.80;;
5965;SDS011;3009;43.224;27.976;2023-04-07T08:47:08;20.10;;;11.60;;
5965;SDS011;3009;43.224;27.976;2023-04-07T08:49:37;15.73;;;11.57;;
5965;SDS011;3009;43.224;27.976;2023-04-07T08:52:11;14.97;;;10.90;;
5965;SDS011;3009;43.224;27.976;2023-04-07T08:54:43;14.43;;;10.60;;
5965;SDS011;3009;43.224;27.976;2023-04-07T08:57:11;13.87;;;11.60;;
5965;SDS011;3009;43.224;27.976;2023-04-07T08:59:41;20.03;;;12.60;;
5965;SDS011;3009;43.224;27.976;2023-04-07T09:02:12;13.93;;;11.83;;
5965;SDS011;3009;43.224;27.976;2023-04-07T09:04:42;19.90;;;11.30;;
5965;SDS011;3009;43.224;27.976;2023-04-07T09:07:11;20.50;;;12.30;;
5965;SDS011;3009;43.224;27.976;2023-04-07T09:09:39;18.10;;;11.20;;
5965;SDS011;3009;43.224;27.976;2023-04-07T09:12:09;19.57;;;12.23;;
5965;SDS011;3009;43.224;27.976;2023-04-07T09:14:38;14.90;;;11.30;;
5965;SDS011;3009;43.224;27.976;2023-04-07T09:17:07;15.90;;;11.10;;
5965;SDS011;3009;43.224;27.976;2023-04-07T09:19:35;15.43;;;11.00;;
5965;SDS011;3009;43.224;27.976;2023-04-07T09:22:04;18.53;;;11.47;;
5965;SDS011;3009;43.224;27.976;2023-04-07T09:24:33;15.70;;;10.63;;
5965;SDS011;3009;43.224;27.976;2023-04-07T09:27:10;17.80;;;11.87;;
5965;SDS011;3009;43.224;27.976;2023-04-07T09:29:43;16.87;;;11.13;;
5965;SDS011;3009;43.224;27.976;2023-04-07T09:32:12;19.63;;;11.60;;
5965;SDS011;3009;43.224;27.976;2023-04-07T09:35:02;21.97;;;10.80;;
5965;SDS011;3009;43.224;27.976;2023-04-07T09:37:32;22.30;;;10.93;;
5965;SDS011;3009;43.224;27.976;2023-04-07T09:40:00;15.67;;;10.00;;
5965;SDS011;3009;43.224;27.976;2023-04-07T09:42:30;12.90;;;10.40;;
5965;SDS011;3009;43.224;27.976;2023-04-07T09:45:01;21.33;;;11.47;;
5965;SDS011;3009;43.224;27.976;2023-04-07T09:47:30;16.23;;;12.00;;
5965;SDS011;3009;43.224;27.976;2023-04-07T09:49:59;15.43;;;11.20;;
5965;SDS011;3009;43.224;27.976;2023-04-07T09:55:19;15.23;;;11.07;;
5965;SDS011;3009;43.224;27.976;2023-04-07T09:57:50;13.23;;;11.20;;
5965;SDS011;3009;43.224;27.976;2023-04-07T10:00:21;13.80;;;10.90;;
5965;SDS011;3009;43.224;27.976;2023-04-07T10:02:49;15.00;;;11.20;;
5965;SDS011;3009;43.224;27.976;2023-04-07T10:05:19;13.63;;;11.07;;
5965;SDS011;3009;43.224;27.976;2023-04-07T10:07:48;13.07;;;10.77;;
5965;SDS011;3009;43.224;27.976;2023-04-07T10:10:16;15.60;;;10.57;;
5965;SDS011;3009;43.224;27.976;2023-04-07T10:12:45;12.07;;;9.57;;
5965;SDS011;3009;43.224;27.976;2023-04-07T10:15:20;15.20;;;9.77;;
5965;SDS011;3009;43.224;27.976;2023-04-07T10:17:50;13.37;;;9.43;;
5965;SDS011;3009;43.224;27.976;2023-04-07T10:20:22;10.80;;;9.43;;
5965;SDS011;3009;43.224;27.976;2023-04-07T10:22:51;13.60;;;9.83;;
5965;SDS011;3009;43.224;27.976;2023-04-07T10:25:22;11.90;;;9.40;;
5965;SDS011;3009;43.224;27.976;2023-04-07T10:27:55;10.10;;;9.20;;
5965;SDS011;3009;43.224;27.976;2023-04-07T10:30:28;14.73;;;9.80;;
5965;SDS011;3009;43.224;27.976;2023-04-07T10:32:59;14.13;;;9.90;;
5965;SDS011;3009;43.224;27.976;2023-04-07T10:35:28;14.40;;;10.70;;
5965;SDS011;3009;43.224;27.976;2023-04-07T10:38:16;12.23;;;10.53;;
5965;SDS011;3009;43.224;27.976;2023-04-07T10:40:45;13.53;;;10.83;;
5965;SDS011;3009;43.224;27.976;2023-04-07T10:43:35;17.23;;;10.70;;
5965;SDS011;3009;43.224;27.976;2023-04-07T10:46:04;15.97;;;10.60;;
5965;SDS011;3009;43.224;27.976;2023-04-07T10:48:32;15.00;;;11.03;;
5965;SDS011;3009;43.224;27.976;2023-04-07T10:51:11;12.93;;;10.50;;
5965;SDS011;3009;43.224;27.976;2023-04-07T10:59:37;16.90;;;11.47;;
5965;SDS011;3009;43.224;27.976;2023-04-07T11:04:59;15.30;;;11.30;;
5965;SDS011;3009;43.224;27.976;2023-04-07T11:07:44;16.40;;;11.23;;
5965;SDS011;3009;43.224;27.976;2023-04-07T11:10:15;14.97;;;11.47;;
5965;SDS011;3009;43.224;27.976;2023-04-07T11:15:35;13.70;;;11.23;;
5965;SDS011;3009;43.224;27.976;2023-04-07T11:18:07;15.97;;;11.07;;
5965;SDS011;3009;43.224;27.976;2023-04-07T11:20:41;11.90;;;10.63;;
5965;SDS011;3009;43.224;27.976;2023-04-07T11:23:14;16.60;;;12.67;;
5965;SDS011;3009;43.224;27.976;2023-04-07T11:25:44;24.57;;;12.10;;
5965;SDS011;3009;43.224;27.976;2023-04-07T11:28:13;19.57;;;11.27;;
5965;SDS011;3009;43.224;27.976;2023-04-07T11:30:47;16.93;;;11.47;;
5965;SDS011;3009;43.224;27.976;2023-04-07T11:33:19;17.03;;;11.30;;
5965;SDS011;3009;43.224;27.976;2023-04-07T11:35:48;17.60;;;12.13;;
5965;SDS011;3009;43.224;27.976;2023-04-07T11:38:22;22.00;;;10.87;;
5965;SDS011;3009;43.224;27.976;2023-04-07T11:40:52;16.67;;;11.43;;
5965;SDS011;3009;43.224;27.976;2023-04-07T11:43:22;18.20;;;12.23;;
5965;SDS011;3009;43.224;27.976;2023-04-07T11:46:06;15.60;;;11.70;;
5965;SDS011;3009;43.224;27.976;2023-04-07T11:48:36;14.30;;;11.77;;
5965;SDS011;3009;43.224;27.976;2023-04-07T11:51:05;13.50;;;11.23;;
5965;SDS011;3009;43.224;27.976;2023-04-07T11:53:34;15.37;;;11.13;;
5965;SDS011;3009;43.224;27.976;2023-04-07T11:56:04;14.00;;;10.50;;
5965;SDS011;3009;43.224;27.976;2023-04-07T11:58:35;15.90;;;11.67;;
5965;SDS011;3009;43.224;27.976;2023-04-07T12:01:04;14.70;;;12.10;;
5965;SDS011;3009;43.224;27.976;2023-04-07T12:03:35;14.17;;;12.07;;
5965;SDS011;3009;43.224;27.976;2023-04-07T12:06:04;12.27;;;10.97;;
5965;SDS011;3009;43.224;27.976;2023-04-07T12:08:36;16.00;;;11.90;;
5965;SDS011;3009;43.224;27.976;2023-04-07T12:11:06;18.70;;;11.07;;
5965;SDS011;3009;43.224;27.976;2023-04-07T12:13:34;12.63;;;10.90;;
5965;SDS011;3009;43.224;27.976;2023-04-07T12:16:03;13.00;;;10.93;;
5965;SDS011;3009;43.224;27.976;2023-04-07T12:18:33;16.53;;;12.27;;
5965;SDS011;3009;43.224;27.976;2023-04-07T12:21:02;16.80;;;11.63;;
5965;SDS011;3009;43.224;27.976;2023-04-07T12:23:31;20.73;;;12.23;;
5965;SDS011;3009;43.224;27.976;2023-04-07T12:25:59;12.40;;;10.30;;
5965;SDS011;3009;43.224;27.976;2023-04-07T12:28:27;15.93;;;10.20;;
5965;SDS011;3009;43.224;27.976;2023-04-07T12:30:56;14.17;;;10.10;;
5965;SDS011;3009;43.224;27.976;2023-04-07T12:33:24;17.73;;;10.03;;
5965;SDS011;3009;43.224;27.976;2023-04-07T12:35:54;15.60;;;10.53;;
5965;SDS011;3009;43.224;27.976;2023-04-07T12:38:23;11.87;;;9.60;;
5965;SDS011;3009;43.224;27.976;2023-04-07T12:40:51;12.43;;;9.93;;
5965;SDS011;3009;43.224;27.976;2023-04-07T12:43:20;10.60;;;9.27;;
5965;SDS011;3009;43.224;27.976;2023-04-07T12:45:49;13.17;;;10.30;;
5965;SDS011;3009;43.224;27.976;2023-04-07T12:48:17;10.60;;;8.63;;
5965;SDS011;3009;43.224;27.976;2023-04-07T12:50:45;12.00;;;9.63;;
5965;SDS011;3009;43.224;27.976;2023-04-07T12:53:15;10.73;;;9.13;;
5965;SDS011;3009;43.224;27.976;2023-04-07T12:55:43;11.60;;;8.87;;
5965;SDS011;3009;43.224;27.976;2023-04-07T12:58:15;14.80;;;11.13;;
5965;SDS011;3009;43.224;27.976;2023-04-07T13:00:44;21.87;;;11.17;;
5965;SDS011;3009;43.224;27.976;2023-04-07T13:03:14;14.90;;;11.23;;
5965;SDS011;3009;43.224;27.976;2023-04-07T13:05:43;23.53;;;13.10;;
5965;SDS011;3009;43.224;27.976;2023-04-07T13:08:11;17.50;;;11.97;;
5965;SDS011;3009;43.224;27.976;2023-04-07T13:10:41;17.67;;;11.90;;
5965;SDS011;3009;43.224;27.976;2023-04-07T13:13:09;15.30;;;10.80;;
5965;SDS011;3009;43.224;27.976;2023-04-07T13:15:38;21.63;;;13.90;;
5965;SDS011;3009;43.224;27.976;2023-04-07T13:18:06;17.40;;;12.13;;
5965;SDS011;3009;43.224;27.976;2023-04-07T13:20:35;15.10;;;12.00;;
5965;SDS011;3009;43.224;27.976;2023-04-07T13:23:03;24.50;;;15.47;;
5965;SDS011;3009;43.224;27.976;2023-04-07T13:25:35;120.03;;;48.77;;
5965;SDS011;3009;43.224;27.976;2023-04-07T13:28:05;53.77;;;27.30;;
5965;SDS011;3009;43.224;27.976;2023-04-07T13:30:33;49.63;;;23.77;;
5965;SDS011;3009;43.224;27.976;2023-04-07T13:33:01;92.27;;;39.50;;
5965;SDS011;3009;43.224;27.976;2023-04-07T13:35:30;33.27;;;19.50;;
5965;SDS011;3009;43.224;27.976;2023-04-07T13:38:01;50.67;;;27.83;;
5965;SDS011;3009;43.224;27.976;2023-04-07T13:40:29;26.20;;;16.27;;
5965;SDS011;3009;43.224;27.976;2023-04-07T13:42:58;19.33;;;14.30;;
5965;SDS011;3009;43.224;27.976;2023-04-07T13:45:28;18.67;;;12.80;;
5965;SDS011;3009;43.224;27.976;2023-04-07T13:47:56;36.93;;;18.17;;
5965;SDS011;3009;43.224;27.976;2023-04-07T13:50:25;14.10;;;11.70;;
5965;SDS011;3009;43.224;27.976;2023-04-07T13:52:54;14.83;;;11.77;;
5965;SDS011;3009;43.224;27.976;2023-04-07T13:55:22;12.67;;;11.17;;
5965;SDS011;3009;43.224;27.976;2023-04-07T13:57:51;14.47;;;12.03;;
5965;SDS011;3009;43.224;27.976;2023-04-07T14:00:20;27.20;;;16.37;;
5965;SDS011;3009;43.224;27.976;2023-04-07T14:02:49;19.90;;;14.20;;
5965;SDS011;3009;43.224;27.976;2023-04-07T14:05:18;24.17;;;15.03;;
5965;SDS011;3009;43.224;27.976;2023-04-07T14:07:47;11.23;;;10.13;;
5965;SDS011;3009;43.224;27.976;2023-04-07T14:10:16;16.23;;;11.17;;
5965;SDS011;3009;43.224;27.976;2023-04-07T14:12:45;14.47;;;10.90;;
5965;SDS011;3009;43.224;27.976;2023-04-07T14:15:14;13.33;;;10.90;;
5965;SDS011;3009;43.224;27.976;2023-04-07T14:17:43;12.70;;;11.17;;
5965;SDS011;3009;43.224;27.976;2023-04-07T14:20:13;18.40;;;10.80;;
5965;SDS011;3009;43.224;27.976;2023-04-07T14:22:42;16.60;;;12.00;;
5965;SDS011;3009;43.224;27.976;2023-04-07T14:25:10;12.87;;;10.53;;
5965;SDS011;3009;43.224;27.976;2023-04-07T14:27:39;13.17;;;10.27;;
5965;SDS011;3009;43.224;27.976;2023-04-07T14:30:07;14.77;;;10.23;;
5965;SDS011;3009;43.224;27.976;2023-04-07T14:32:37;15.90;;;10.93;;
5965;SDS011;3009;43.224;27.976;2023-04-07T14:35:05;25.73;;;10.37;;
5965;SDS011;3009;43.224;27.976;2023-04-07T14:37:36;12.90;;;9.90;;
5965;SDS011;3009;43.224;27.976;2023-04-07T14:40:05;11.77;;;9.67;;
5965;SDS011;3009;43.224;27.976;2023-04-07T14:42:34;16.43;;;10.10;;
5965;SDS011;3009;43.224;27.976;2023-04-07T14:45:03;12.10;;;10.80;;
5965;SDS011;3009;43.224;27.976;2023-04-07T14:47:33;14.30;;;10.40;;
5965;SDS011;3009;43.224;27.976;2023-04-07T14:50:01;11.97;;;10.73;;
5965;SDS011;3009;43.224;27.976;2023-04-07T14:52:29;13.40;;;9.37;;
5965;SDS011;3009;43.224;27.976;2023-04-07T14:54:59;16.10;;;10.73;;
5965;SDS011;3009;43.224;27.976;2023-04-07T14:57:28;17.63;;;12.50;;
5965;SDS011;3009;43.224;27.976;2023-04-07T14:59:56;23.37;;;17.17;;
5965;SDS011;3009;43.224;27.976;2023-04-07T15:02:25;23.53;;;12.60;;
5965;SDS011;3009;43.224;27.976;2023-04-07T15:04:54;15.10;;;11.87;;
5965;SDS011;3009;43.224;27.976;2023-04-07T15:07:23;16.00;;;11.07;;
5965;SDS011;3009;43.224;27.976;2023-04-07T15:09:52;12.20;;;10.90;;
5965;SDS011;3009;43.224;27.976;2023-04-07T15:12:22;28.53;;;12.03;;